COMET47 EGDM-EGDM

Flight info

Callsign COMET47
Flight time N/A
Altitude 5000
Route VLN STAY01/0100 VLN
Aircraft P8/M-SDE2E3FGHIRWXY/LB2

Departure

Time 2026-05-05 18:16
Airport MoD Boscombe Down (EGDM)

Arrival

Time N/A
Airport MoD Boscombe Down (EGDM)
Time Latitude Longitude Altitude Speed Heading
2026-05-05 17:58 51.16387 -1.74389 410 ft 0 kts 161°
2026-05-05 18:10 51.16382 -1.74384 410 ft 3 kts 149°
2026-05-05 18:10 51.16384 -1.74337 408 ft 7 kts 59°
2026-05-05 18:10 51.16406 -1.74318 409 ft 3 kts 38°
2026-05-05 18:10 51.16428 -1.74266 408 ft 10 kts 69°
2026-05-05 18:11 51.16416 -1.74090 400 ft 22 kts 104°
2026-05-05 18:11 51.16372 -1.73848 392 ft 19 kts 109°
2026-05-05 18:11 51.16276 -1.73718 388 ft 20 kts 175°
2026-05-05 18:11 51.16194 -1.73877 385 ft 21 kts 248°
2026-05-05 18:12 51.16134 -1.74117 384 ft 25 kts 249°
2026-05-05 18:12 51.16070 -1.74370 388 ft 24 kts 245°
2026-05-05 18:12 51.15970 -1.74566 391 ft 23 kts 216°
2026-05-05 18:12 51.15836 -1.74690 391 ft 22 kts 207°
2026-05-05 18:13 51.15703 -1.74803 393 ft 21 kts 208°
2026-05-05 18:13 51.15572 -1.74953 392 ft 26 kts 225°
2026-05-05 18:13 51.15449 -1.75182 393 ft 28 kts 230°
2026-05-05 18:13 51.15326 -1.75418 397 ft 28 kts 230°
2026-05-05 18:14 51.15198 -1.75662 399 ft 30 kts 230°
2026-05-05 18:14 51.15064 -1.75914 397 ft 30 kts 230°
2026-05-05 18:14 51.14936 -1.76158 399 ft 29 kts 230°
2026-05-05 18:14 51.14799 -1.76420 403 ft 33 kts 230°
2026-05-05 18:15 51.14660 -1.76689 405 ft 28 kts 232°
2026-05-05 18:15 51.14571 -1.76943 405 ft 24 kts 208°
2026-05-05 18:15 51.14440 -1.76861 403 ft 14 kts 131°
2026-05-05 18:15 51.14448 -1.76782 402 ft 7 kts 52°
2026-05-05 18:16 51.14611 -1.76469 405 ft 77 kts 50°
2026-05-05 18:16 51.15124 -1.75510 501 ft 137 kts 47°
2026-05-05 18:16 51.15710 -1.74321 1342 ft 135 kts 49°
2026-05-05 18:16 51.16302 -1.73072 1997 ft 154 kts 50°
2026-05-05 18:17 51.17029 -1.71567 2367 ft 189 kts 47°
2026-05-05 18:17 51.18181 -1.70384 2650 ft 208 kts 13°
2026-05-05 18:17 51.19637 -1.70556 3263 ft 218 kts 339°
2026-05-05 18:17 51.20846 -1.72047 4029 ft 226 kts 309°
2026-05-05 18:18 51.21471 -1.74355 4633 ft 232 kts 279°
2026-05-05 18:18 51.21326 -1.76960 4933 ft 242 kts 257°
2026-05-05 18:18 51.20796 -1.79547 4944 ft 247 kts 251°
2026-05-05 18:18 51.20176 -1.82109 4950 ft 247 kts 251°
2026-05-05 18:19 51.19548 -1.84657 4955 ft 247 kts 250°
2026-05-05 18:19 51.18919 -1.87219 4944 ft 254 kts 251°
2026-05-05 18:19 51.18236 -1.90035 4964 ft 273 kts 250°
2026-05-05 18:19 51.17585 -1.92734 4950 ft 277 kts 250°
2026-05-05 18:20 51.16896 -1.95601 4938 ft 276 kts 250°
2026-05-05 18:20 51.16216 -1.98446 4936 ft 273 kts 250°
2026-05-05 18:20 51.15542 -2.01269 4930 ft 272 kts 250°
2026-05-05 18:20 51.14872 -2.04086 4923 ft 271 kts 250°
2026-05-05 18:21 51.14203 -2.06895 4939 ft 271 kts 250°
2026-05-05 18:21 51.13542 -2.09673 4951 ft 274 kts 250°
2026-05-05 18:21 51.12865 -2.12512 4940 ft 273 kts 250°
2026-05-05 18:21 51.12194 -2.15323 4941 ft 271 kts 250°
2026-05-05 18:22 51.11524 -2.18132 4952 ft 271 kts 250°
2026-05-05 18:22 51.10856 -2.20929 4948 ft 272 kts 251°
2026-05-05 18:22 51.10181 -2.23753 4961 ft 271 kts 250°
2026-05-05 18:22 51.09513 -2.26544 4962 ft 273 kts 250°
2026-05-05 18:23 51.08827 -2.29412 4966 ft 279 kts 250°
2026-05-05 18:23 51.08139 -2.32277 4957 ft 276 kts 251°
2026-05-05 18:23 51.07470 -2.35058 4943 ft 261 kts 251°
2026-05-05 18:23 51.06838 -2.37681 4946 ft 248 kts 251°
2026-05-05 18:24 51.06235 -2.40183 4940 ft 236 kts 251°
2026-05-05 18:24 51.05662 -2.42558 4947 ft 224 kts 251°
2026-05-05 18:24 51.05116 -2.44818 4954 ft 216 kts 251°
2026-05-05 18:24 51.04577 -2.47054 4954 ft 218 kts 251°
2026-05-05 18:25 51.04034 -2.49307 4973 ft 218 kts 251°
2026-05-05 18:25 51.03675 -2.50793 4965 ft 218 kts 251°
2026-05-05 18:25 51.02953 -2.53777 4956 ft 214 kts 251°
2026-05-05 18:25 51.02421 -2.55971 4954 ft 212 kts 252°
2026-05-05 18:26 51.01891 -2.58153 4961 ft 211 kts 251°
2026-05-05 18:26 51.01362 -2.60323 4966 ft 210 kts 251°
2026-05-05 18:26 51.00836 -2.62488 4969 ft 210 kts 251°
2026-05-05 18:26 51.00363 -2.64680 4955 ft 209 kts 265°
2026-05-05 18:27 51.00573 -2.66865 4973 ft 199 kts 301°
2026-05-05 18:27 51.01482 -2.68436 4973 ft 193 kts 332°
2026-05-05 18:27 51.02739 -2.69012 4980 ft 191 kts
2026-05-05 18:27 51.04017 -2.68457 4976 ft 192 kts 30°
2026-05-05 18:28 51.05337 -2.64825 4971 ft 204 kts 82°
2026-05-05 18:28 51.05400 -2.62567 4976 ft 206 kts 85°
2026-05-05 18:28 51.05410 -2.60272 4978 ft 208 kts 86°
2026-05-05 18:29 51.05415 -2.57974 4967 ft 208 kts 86°
2026-05-05 18:29 51.05420 -2.55679 4960 ft 207 kts 87°
2026-05-05 18:29 51.05425 -2.53464 4980 ft 203 kts 86°
2026-05-05 18:29 51.05431 -2.51240 4961 ft 200 kts 86°
2026-05-05 18:30 51.05440 -2.49017 4964 ft 201 kts 86°
2026-05-05 18:30 51.05446 -2.46805 4966 ft 199 kts 86°
2026-05-05 18:30 51.05453 -2.44603 4966 ft 199 kts 87°
2026-05-05 18:30 51.05459 -2.42416 4987 ft 197 kts 86°
2026-05-05 18:31 51.05464 -2.40245 4982 ft 197 kts 86°
2026-05-05 18:31 51.05471 -2.38063 4975 ft 201 kts 87°
2026-05-05 18:31 51.05271 -2.35833 4938 ft 207 kts 112°
2026-05-05 18:31 51.04319 -2.34139 4964 ft 210 kts 147°
2026-05-05 18:32 51.02911 -2.33563 4957 ft 214 kts 182°
2026-05-05 18:32 51.01530 -2.34349 4956 ft 214 kts 219°
2026-05-05 18:32 51.00713 -2.36242 4960 ft 209 kts 257°
2026-05-05 18:32 51.00536 -2.38526 4974 ft 209 kts 271°
2026-05-05 18:33 51.00529 -2.40825 4974 ft 212 kts 273°
2026-05-05 18:33 51.00538 -2.43195 4964 ft 210 kts 273°
2026-05-05 18:33 51.00545 -2.45497 4965 ft 208 kts 274°
2026-05-05 18:33 51.00549 -2.47790 4959 ft 207 kts 273°
2026-05-05 18:34 51.00549 -2.50048 4962 ft 207 kts 273°
2026-05-05 18:34 51.00546 -2.52362 4972 ft 207 kts 273°
2026-05-05 18:34 51.00540 -2.54642 4974 ft 207 kts 273°
2026-05-05 18:34 51.00532 -2.56935 4964 ft 208 kts 272°
2026-05-05 18:35 51.00522 -2.59233 4965 ft 208 kts 272°
2026-05-05 18:35 51.00512 -2.61533 4977 ft 209 kts 272°
2026-05-05 18:35 51.00503 -2.63841 4967 ft 209 kts 274°
2026-05-05 18:35 51.00894 -2.65998 4981 ft 202 kts 308°
2026-05-05 18:36 51.01939 -2.67391 4970 ft 196 kts 339°
2026-05-05 18:36 51.03263 -2.67718 4967 ft 194 kts
2026-05-05 18:36 51.04481 -2.66916 4973 ft 195 kts 38°